Destinations Tirana International Airport Mother Teresa

Tirana International Airport Mother Teresa (LATI / TIA)

Flights to Tirana International Airport Mother Teresa

Flight number From ETE Dispatch
SPY-2492 EGPH Edinburgh Airport 03:55
SPY-4130 LIRN Naples International Airport 01:20
SPY-500 EHGG Groningen Airport Eelde 02:40

Flights from Tirana International Airport Mother Teresa

Flight number To ETE Dispatch
SPY-2493 EGPH Edinburgh Airport 03:55
SPY-4131 LIRN Naples International Airport 01:25
SPY-501 EHGG Groningen Airport Eelde
About

Tirana International Airport Mother Teresa facts

Tirana International Airport Mother Teresa is located in Tirana at an elevation of 38.4 meters or 126 feet.

Currently, Speedy Airlines serves 6 flights to and from Tirana International Airport Mother Teresa.

Detailed airport info

Route map

Weather

Current weather

METAR

METAR

Metar data retrieved Sunday, 21 July 2024 at 18:25 UTC

LATI 211820Z 33004KT CAVOK 27/21 Q1009 NOSIG
Wind Temperature
4 kt 27c